Time;durP1;ratioP1;P1;durP2;ratioP2;P2;SDS_P1;SDS_P2;PMS_P1;PMS_P2;Temp;Humidity;BMP_temperature;BMP_pressure;BME280_temperature;BME280_humidity;BME280_pressure;Samples;Min_cycle;Max_cycle;Signal;HPM_P1;HPM_P2
2022/10/18 00:01:51;;;;;;;17.03;9.67;;;;;;;14.60;100.00;102437.41;5279070;28;20083;-73
2022/10/18 00:04:23;;;;;;;11.27;9.73;;;;;;;14.59;100.00;102433.09;5279375;28;20123;-74
2022/10/18 00:06:54;;;;;;;17.53;10.07;;;;;;;14.57;100.00;102435.81;5279273;28;20043;-72
2022/10/18 00:09:26;;;;;;;15.40;9.67;;;;;;;14.60;100.00;102434.78;5278843;28;20488;-72
2022/10/18 00:11:58;;;;;;;13.27;9.27;;;;;;;14.54;100.00;102424.56;5278470;28;20029;-72
2022/10/18 00:14:29;;;;;;;11.43;9.20;;;;;;;14.58;100.00;102436.63;5279180;28;20020;-72
2022/10/18 00:17:01;;;;;;;13.37;8.53;;;;;;;14.59;100.00;102435.72;5279200;28;20027;-71
2022/10/18 00:19:32;;;;;;;15.13;8.87;;;;;;;14.61;100.00;102439.09;5278976;28;20395;-72
2022/10/18 00:22:03;;;;;;;11.13;8.60;;;;;;;14.62;100.00;102439.06;5282295;28;20108;-71
2022/10/18 00:24:34;;;;;;;11.83;8.60;;;;;;;14.58;100.00;102436.63;5278537;28;20033;-73
2022/10/18 00:27:06;;;;;;;14.90;9.37;;;;;;;14.61;100.00;102426.78;5278756;28;20032;-72
2022/10/18 00:29:37;;;;;;;15.13;9.93;;;;;;;14.59;100.00;102443.63;5279402;28;20662;-73
2022/10/18 00:32:10;;;;;;;17.00;9.90;;;;;;;14.56;100.00;102441.13;5260903;28;20078;-71
2022/10/18 00:34:42;;;;;;;12.73;8.80;;;;;;;14.61;100.00;102432.06;5279893;28;20055;-72
2022/10/18 00:37:13;;;;;;;14.60;9.10;;;;;;;14.45;100.00;102424.09;5281104;28;20067;-72
2022/10/18 00:39:44;;;;;;;10.63;8.77;;;;;;;14.59;100.00;102427.81;5279313;28;20031;-72
2022/10/18 00:42:18;;;;;;;12.80;9.37;;;;;;;14.65;100.00;102422.22;5280975;28;20588;-72
2022/10/18 00:44:49;;;;;;;12.90;7.87;;;;;;;14.54;100.00;102430.66;5281159;28;20029;-71
2022/10/18 00:47:20;;;;;;;15.83;9.43;;;;;;;14.51;100.00;102429.06;5282153;28;20452;-71
2022/10/18 00:49:55;;;;;;;10.23;8.17;;;;;;;14.59;100.00;102433.91;5262201;28;20036;-72
2022/10/18 00:52:33;;;;;;;11.23;9.20;;;;;;;14.59;100.00;102433.91;5261881;28;20048;-72
2022/10/18 00:55:05;;;;;;;9.33;8.23;;;;;;;14.56;100.00;102438.50;5278472;28;20029;-73
2022/10/18 00:57:40;;;;;;;10.23;8.50;;;;;;;14.52;100.00;102443.09;5279104;28;20035;-71
2022/10/18 01:00:12;;;;;;;12.80;8.50;;;;;;;14.46;100.00;102439.00;5278499;28;20107;-72
2022/10/18 01:02:45;;;;;;;10.50;8.23;;;;;;;14.44;100.00;102434.72;5290997;22;20381;-71
2022/10/18 01:05:18;;;;;;;10.10;7.77;;;;;;;14.61;100.00;102444.38;5231249;28;20080;-72
2022/10/18 01:08:23;;;;;;;12.57;8.07;;;;;;;14.47;100.00;102424.03;5235645;28;20383;-71
2022/10/18 01:11:02;;;;;;;;;;;;;;;14.76;100.00;102461.22;5233864;28;20101;-72
2022/10/18 01:14:04;;;;;;;9.57;8.00;;;;;;;14.55;100.00;102461.38;5234722;28;20005;-72
2022/10/18 01:16:58;;;;;;;12.33;7.77;;;;;;;14.60;100.00;102455.88;5235636;28;20530;-72
2022/10/18 01:19:47;;;;;;;13.70;9.43;;;;;;;14.55;100.00;102450.00;5235501;28;20018;-72
2022/10/18 01:22:53;;;;;;;13.87;8.50;;;;;;;14.64;100.00;102446.88;5235674;28;20033;-71
2022/10/18 01:25:52;;;;;;;9.77;7.73;;;;;;;14.71;100.00;102452.69;5233175;28;20036;-72
2022/10/18 01:28:55;;;;;;;8.30;7.50;;;;;;;14.57;100.00;102453.41;5235711;28;20033;-71
2022/10/18 01:31:34;;;;;;;14.30;8.20;;;;;;;14.47;100.00;102445.94;5235827;28;20877;-71
2022/10/18 01:34:10;;;;;;;10.23;8.40;;;;;;;14.45;100.00;102446.97;5235021;28;20057;-71
2022/10/18 01:36:49;;;;;;;12.40;8.30;;;;;;;14.49;100.00;102457.28;5235677;28;20029;-71
2022/10/18 01:39:26;;;;;;;10.77;7.57;;;;;;;14.45;100.00;102453.06;5232900;28;20602;-73
2022/10/18 01:42:00;;;;;;;8.97;8.07;;;;;;;14.36;100.00;102446.53;5235450;28;20029;-71
2022/10/18 01:44:34;;;;;;;9.98;7.88;;;;;;;14.35;100.00;102452.69;5235186;28;20053;-72
2022/10/18 01:47:08;;;;;;;9.83;7.77;;;;;;;14.44;100.00;102448.75;5235108;28;20083;-71
2022/10/18 01:49:39;;;;;;;11.07;7.88;;;;;;;14.38;100.00;102454.34;5235325;28;20264;-73
2022/10/18 01:52:15;;;;;;;12.20;8.57;;;;;;;14.47;100.00;102456.50;5234438;28;20523;-72
2022/10/18 01:54:47;;;;;;;9.73;7.97;;;;;;;14.40;100.00;102449.81;5234058;28;20595;-71
2022/10/18 01:57:38;;;;;;;16.17;8.40;;;;;;;14.39;100.00;102453.41;5233827;28;20084;-71
2022/10/18 02:00:22;;;;;;;8.13;7.33;;;;;;;14.45;100.00;102455.72;5235254;28;20495;-72
2022/10/18 02:03:18;;;;;;;8.63;7.43;;;;;;;14.44;100.00;102451.38;5234563;28;20120;-72
2022/10/18 02:06:04;;;;;;;11.37;7.63;;;;;;;14.32;100.00;102452.00;5234372;28;20049;-72
2022/10/18 02:09:07;;;;;;;15.23;8.57;;;;;;;14.45;100.00;102453.06;5235251;28;20450;-72
2022/10/18 02:11:41;;;;;;;11.83;8.60;;;;;;;14.31;100.00;102461.72;5231227;28;20067;-71
2022/10/18 02:14:16;;;;;;;12.33;9.17;;;;;;;14.36;100.00;102461.47;5233768;28;20029;-73
2022/10/18 02:16:52;;;;;;;11.50;7.80;;;;;;;14.37;100.00;102456.13;5233704;28;20333;-72
2022/10/18 02:19:31;;;;;;;12.77;8.40;;;;;;;14.48;100.00;102452.09;5234666;28;20080;-71
2022/10/18 02:22:06;;;;;;;9.80;8.63;;;;;;;14.31;100.00;102455.56;5234580;28;20480;-72
2022/10/18 02:24:41;;;;;;;10.53;8.33;;;;;;;14.26;100.00;102435.56;5233401;28;20037;-72
2022/10/18 02:27:13;;;;;;;16.77;8.40;;;;;;;14.32;100.00;102458.13;5234004;28;20025;-73
2022/10/18 02:29:45;;;;;;;12.77;7.80;;;;;;;14.35;100.00;102454.47;5234382;28;20048;-72
2022/10/18 02:32:24;;;;;;;10.03;8.37;;;;;;;14.40;100.00;102465.63;5233956;28;20033;-71
2022/10/18 02:35:04;;;;;;;9.97;7.53;;;;;;;14.43;100.00;102462.00;5234778;28;20033;-71
2022/10/18 02:37:38;;;;;;;12.33;8.90;;;;;;;14.28;100.00;102457.44;5233783;28;20033;-71
2022/10/18 02:40:10;;;;;;;12.02;7.65;;;;;;;14.30;100.00;102461.75;5233185;28;20037;-71
2022/10/18 02:42:52;;;;;;;13.33;8.33;;;;;;;14.32;100.00;102463.41;5233903;28;20120;-72
2022/10/18 02:45:24;;;;;;;11.47;8.17;;;;;;;14.43;100.00;102468.16;5232957;28;20166;-72
2022/10/18 02:47:56;;;;;;;8.80;7.73;;;;;;;14.28;100.00;102475.00;5233627;28;20029;-72
2022/10/18 02:50:27;;;;;;;11.80;8.60;;;;;;;14.28;100.00;102473.25;5234177;28;20018;-71
2022/10/18 02:52:58;;;;;;;12.20;8.37;;;;;;;14.33;100.00;102467.72;5232214;28;20029;-71
2022/10/18 02:55:29;;;;;;;15.13;9.17;;;;;;;14.27;100.00;102457.50;5233070;28;20036;-72
2022/10/18 02:58:01;;;;;;;14.07;9.00;;;;;;;14.27;100.00;102468.91;5233751;28;20452;-71
2022/10/18 03:00:32;;;;;;;13.63;9.13;;;;;;;14.20;100.00;102470.13;5233591;28;20387;-72
2022/10/18 03:03:03;;;;;;;10.73;8.67;;;;;;;14.27;100.00;102468.06;5231971;28;20451;-73
2022/10/18 03:05:34;;;;;;;10.13;9.13;;;;;;;14.30;100.00;102459.13;5233970;28;20400;-73
2022/10/18 03:08:06;;;;;;;10.93;8.57;;;;;;;14.37;100.00;102460.53;5233072;28;20446;-73
2022/10/18 03:10:37;;;;;;;11.80;9.07;;;;;;;14.27;100.00;102446.97;5233126;28;20033;-72
2022/10/18 03:13:09;;;;;;;16.40;10.13;;;;;;;14.35;100.00;102467.66;5233356;28;20071;-73
2022/10/18 03:15:41;;;;;;;13.90;9.67;;;;;;;14.33;100.00;102465.09;5233958;28;20029;-72
2022/10/18 03:18:12;;;;;;;10.30;8.87;;;;;;;14.27;100.00;102458.38;5232955;28;20026;-73
2022/10/18 03:20:43;;;;;;;12.90;10.43;;;;;;;14.22;100.00;102455.13;5233229;28;20649;-72
2022/10/18 03:23:15;;;;;;;13.47;10.23;;;;;;;14.26;100.00;102469.81;5233651;28;20537;-72
2022/10/18 03:25:46;;;;;;;11.13;9.83;;;;;;;14.14;100.00;102462.53;5232816;28;20033;-73
2022/10/18 03:28:17;;;;;;;11.67;9.97;;;;;;;14.33;100.00;102473.00;5236396;28;20021;-71
2022/10/18 03:30:48;;;;;;;15.27;9.67;;;;;;;14.40;100.00;102476.19;5239598;28;20022;-73
2022/10/18 03:33:20;;;;;;;14.27;10.33;;;;;;;14.35;100.00;102462.38;5240194;28;20112;-72
2022/10/18 03:35:51;;;;;;;13.87;10.10;;;;;;;14.39;100.00;102469.22;5240374;28;20021;-71
2022/10/18 03:38:22;;;;;;;11.83;10.30;;;;;;;14.44;100.00;102464.56;5239024;28;20035;-71
2022/10/18 03:40:54;;;;;;;14.70;11.80;;;;;;;14.43;100.00;102473.41;5238850;28;20030;-72
2022/10/18 03:43:25;;;;;;;13.63;12.23;;;;;;;14.26;100.00;102475.09;5241024;28;20496;-71
2022/10/18 03:45:57;;;;;;;14.77;11.73;;;;;;;14.22;100.00;102473.56;5239398;28;20116;-71
2022/10/18 03:48:28;;;;;;;12.20;10.87;;;;;;;14.27;100.00;102473.31;5240694;28;20022;-71
2022/10/18 03:50:59;;;;;;;18.87;12.10;;;;;;;14.14;100.00;102460.75;5232266;28;20042;-71
2022/10/18 03:53:30;;;;;;;17.40;12.80;;;;;;;14.22;100.00;102468.28;5219118;28;20030;-71
2022/10/18 03:56:02;;;;;;;16.73;13.13;;;;;;;14.20;100.00;102456.97;5226376;28;20035;-71
2022/10/18 03:58:33;;;;;;;20.63;12.00;;;;;;;14.25;100.00;102457.59;5239869;28;20030;-71
2022/10/18 04:01:04;;;;;;;14.10;11.87;;;;;;;14.08;100.00;102455.78;5233606;28;20037;-71
2022/10/18 04:03:36;;;;;;;16.83;12.47;;;;;;;14.14;100.00;102454.63;5219581;28;20507;-70
2022/10/18 04:06:08;;;;;;;13.33;11.83;;;;;;;14.18;100.00;102455.31;5219406;28;20036;-71
2022/10/18 04:08:40;;;;;;;14.97;11.60;;;;;;;14.22;100.00;102463.03;5219631;28;20038;-71
2022/10/18 04:11:11;;;;;;;12.67;11.37;;;;;;;14.07;100.00;102463.78;5217962;28;20048;-72
2022/10/18 04:13:42;;;;;;;13.07;11.70;;;;;;;14.08;100.00;102449.66;5218644;28;20127;-73
2022/10/18 04:16:14;;;;;;;12.97;11.70;;;;;;;14.06;100.00;102454.16;5219464;28;20052;-71
2022/10/18 04:18:45;;;;;;;16.63;12.83;;;;;;;14.00;100.00;102457.94;5218804;28;20034;-70
2022/10/18 04:21:16;;;;;;;14.77;11.63;;;;;;;14.11;100.00;102462.69;5219228;28;20041;-72
2022/10/18 04:23:49;;;;;;;13.33;11.53;;;;;;;13.96;100.00;102451.97;5218701;28;20029;-73
2022/10/18 04:26:21;;;;;;;18.43;12.00;;;;;;;13.93;100.00;102461.81;5218135;28;20065;-71
2022/10/18 04:28:52;;;;;;;14.47;11.93;;;;;;;13.85;100.00;102455.13;5219183;28;20026;-71
2022/10/18 04:31:24;;;;;;;13.43;12.03;;;;;;;13.91;100.00;102469.78;5219066;28;20022;-72
2022/10/18 04:33:55;;;;;;;15.03;12.07;;;;;;;13.85;100.00;102467.44;5218980;28;20022;-71
2022/10/18 04:36:27;;;;;;;13.00;11.33;;;;;;;13.75;100.00;102470.50;5219011;28;20052;-72
2022/10/18 04:38:58;;;;;;;16.60;13.03;;;;;;;13.79;100.00;102472.06;5216364;28;20026;-71
2022/10/18 04:41:29;;;;;;;13.03;11.83;;;;;;;13.79;100.00;102474.69;5216181;28;20029;-72
2022/10/18 04:44:00;;;;;;;24.53;12.70;;;;;;;13.88;100.00;102477.81;5215219;28;20026;-71
2022/10/18 04:46:32;;;;;;;22.20;12.77;;;;;;;13.81;100.00;102472.00;5216218;28;20026;-71
2022/10/18 04:49:03;;;;;;;14.40;12.43;;;;;;;13.83;100.00;102472.78;5215827;28;20076;-72
2022/10/18 04:51:35;;;;;;;14.13;12.67;;;;;;;13.84;100.00;102473.63;5216162;28;20033;-71
2022/10/18 04:54:06;;;;;;;16.47;12.43;;;;;;;13.81;100.00;102481.69;5214883;28;20033;-72
2022/10/18 04:56:38;;;;;;;17.03;13.67;;;;;;;13.75;100.00;102481.03;5215403;28;20025;-72
2022/10/18 04:59:09;;;;;;;14.30;12.77;;;;;;;13.73;100.00;102482.91;5215617;28;20479;-71
2022/10/18 05:01:40;;;;;;;21.93;12.47;;;;;;;13.71;100.00;102479.47;5214338;28;20512;-72
2022/10/18 05:04:11;;;;;;;14.63;12.47;;;;;;;13.72;100.00;102481.19;5214664;28;20408;-71
2022/10/18 05:06:43;;;;;;;14.27;12.97;;;;;;;13.76;100.00;102476.63;5215630;28;20022;-73
2022/10/18 05:09:14;;;;;;;16.13;13.17;;;;;;;13.76;100.00;102472.22;5214329;28;20049;-72
2022/10/18 05:11:45;;;;;;;14.63;13.10;;;;;;;13.71;100.00;102468.94;5215257;28;20380;-72
2022/10/18 05:14:17;;;;;;;13.87;12.47;;;;;;;13.74;100.00;102478.47;5215565;28;20022;-72
2022/10/18 05:16:48;;;;;;;15.90;13.63;;;;;;;13.67;100.00;102484.03;5214864;28;20294;-72
2022/10/18 05:19:19;;;;;;;18.77;13.63;;;;;;;13.65;100.00;102479.75;5213740;28;20026;-72
2022/10/18 05:21:51;;;;;;;15.73;13.67;;;;;;;13.65;100.00;102491.16;5214476;28;20105;-72
2022/10/18 05:24:22;;;;;;;15.30;13.60;;;;;;;13.64;100.00;102485.94;5235943;28;20037;-72
2022/10/18 05:26:53;;;;;;;17.53;13.40;;;;;;;13.68;100.00;102495.44;5255050;28;20472;-71
2022/10/18 05:29:24;;;;;;;15.83;13.27;;;;;;;13.62;100.00;102495.69;5255790;28;20467;-71
2022/10/18 05:31:56;;;;;;;15.73;14.03;;;;;;;13.59;100.00;102490.56;5255972;28;20021;-72
2022/10/18 05:34:30;;;;;;;14.97;13.37;;;;;;;13.62;100.00;102500.97;5255979;28;20037;-73
2022/10/18 05:37:02;;;;;;;16.33;13.70;;;;;;;13.57;100.00;102492.41;5244256;28;20045;-72
2022/10/18 05:39:33;;;;;;;16.67;14.30;;;;;;;13.57;100.00;102487.16;5213689;28;20089;-72
2022/10/18 05:42:05;;;;;;;17.90;14.37;;;;;;;13.64;100.00;102488.59;5221946;28;20078;-71
2022/10/18 05:44:36;;;;;;;14.83;13.17;;;;;;;13.55;100.00;102503.88;5225721;28;20383;-72
2022/10/18 05:47:07;;;;;;;16.57;14.87;;;;;;;13.55;100.00;102482.84;5219459;28;20045;-71
2022/10/18 05:49:39;;;;;;;16.37;14.00;;;;;;;13.54;100.00;102473.22;5213913;28;20381;-71
2022/10/18 05:52:10;;;;;;;18.97;14.13;;;;;;;13.61;100.00;102494.00;5214945;28;20034;-71
2022/10/18 05:54:41;;;;;;;20.30;15.63;;;;;;;13.55;100.00;102501.25;5214055;28;20060;-72
2022/10/18 05:57:12;;;;;;;17.57;15.13;;;;;;;13.58;100.00;102504.69;5214688;28;20030;-72
2022/10/18 05:59:44;;;;;;;23.77;17.57;;;;;;;13.55;100.00;102505.66;5225126;28;20014;-72
2022/10/18 06:02:15;;;;;;;22.33;16.50;;;;;;;13.59;100.00;102507.25;5223286;28;20049;-73
2022/10/18 06:04:46;;;;;;;21.97;16.37;;;;;;;13.57;100.00;102510.84;5222975;28;20038;-71
2022/10/18 06:07:17;;;;;;;40.17;17.07;;;;;;;13.31;100.00;102496.16;5225868;28;20018;-72
2022/10/18 06:09:49;;;;;;;26.00;18.57;;;;;;;13.40;100.00;102502.78;5215345;28;20021;-72
2022/10/18 06:12:20;;;;;;;22.50;16.70;;;;;;;13.55;100.00;102510.91;5215254;28;20049;-71
2022/10/18 06:14:51;;;;;;;23.70;16.43;;;;;;;13.49;100.00;102522.53;5216612;28;20037;-71
2022/10/18 06:17:23;;;;;;;29.47;16.93;;;;;;;13.46;100.00;102503.44;5225279;28;20040;-72
2022/10/18 06:19:54;;;;;;;34.10;17.47;;;;;;;13.53;100.00;102515.41;5226163;28;20515;-73
2022/10/18 06:22:25;;;;;;;34.57;16.40;;;;;;;13.48;100.00;102514.72;5221712;28;20088;-72
2022/10/18 06:24:57;;;;;;;49.57;17.73;;;;;;;13.51;100.00;102528.59;5222132;28;20072;-71
2022/10/18 06:27:30;;;;;;;23.57;16.67;;;;;;;13.53;100.00;102523.28;5223228;28;20060;-72
2022/10/18 06:30:01;;;;;;;28.87;16.00;;;;;;;13.43;100.00;102518.44;5222926;28;20091;-71
2022/10/18 06:32:32;;;;;;;40.63;16.13;;;;;;;13.45;100.00;102518.38;5222555;28;20022;-71
2022/10/18 06:35:04;;;;;;;35.37;15.40;;;;;;;13.47;100.00;102524.41;5229376;28;20025;-71
2022/10/18 06:37:36;;;;;;;26.00;15.40;;;;;;;13.57;100.00;102539.81;5223788;28;20415;-72
2022/10/18 06:40:08;;;;;;;37.87;16.40;;;;;;;13.53;100.00;102539.94;5232574;28;20033;-72
2022/10/18 06:42:41;;;;;;;35.53;15.13;;;;;;;13.39;100.00;102531.78;5246492;28;20033;-72
2022/10/18 06:45:13;;;;;;;27.50;15.30;;;;;;;13.48;100.00;102535.78;5253510;28;20033;-72
2022/10/18 06:47:44;;;;;;;31.07;14.67;;;;;;;13.39;100.00;102532.66;5254335;28;20024;-72
2022/10/18 06:50:15;;;;;;;25.00;14.80;;;;;;;13.63;100.00;102539.53;5254454;28;20362;-72
2022/10/18 06:52:48;;;;;;;20.63;13.93;;;;;;;13.73;100.00;102542.59;5253190;28;20032;-72
2022/10/18 06:55:19;;;;;;;18.43;14.47;;;;;;;13.58;100.00;102541.53;5236096;28;20048;-72
2022/10/18 06:57:52;;;;;;;26.57;14.53;;;;;;;13.54;100.00;102557.44;5231733;28;20464;-72
2022/10/18 07:00:23;;;;;;;27.93;14.63;;;;;;;13.53;100.00;102571.53;5230364;28;20037;-71
2022/10/18 07:02:56;;;;;;;24.47;14.67;;;;;;;13.53;100.00;102571.53;5255282;28;20049;-72
2022/10/18 07:05:27;;;;;;;21.03;15.83;;;;;;;13.52;100.00;102559.31;5254629;28;20053;-72
2022/10/18 07:07:58;;;;;;;19.77;14.90;;;;;;;13.60;100.00;102563.34;5237011;28;20078;-72
2022/10/18 07:10:30;;;;;;;19.93;13.57;;;;;;;13.67;100.00;102572.69;5229348;28;20041;-71
2022/10/18 07:13:02;;;;;;;21.67;14.63;;;;;;;13.59;100.00;102580.94;5232829;28;20439;-71
2022/10/18 07:15:37;;;;;;;22.40;14.03;;;;;;;13.55;100.00;102590.75;5227981;28;20065;-72
2022/10/18 07:18:08;;;;;;;17.47;14.37;;;;;;;13.62;100.00;102585.19;5212308;28;20030;-72
2022/10/18 07:20:39;;;;;;;17.97;15.07;;;;;;;13.60;100.00;102576.50;5212731;28;20458;-72
2022/10/18 07:23:11;;;;;;;19.27;16.97;;;;;;;13.69;100.00;102581.38;5212166;28;20105;-72
2022/10/18 07:25:42;;;;;;;18.90;16.10;;;;;;;13.82;100.00;102586.94;5211348;28;20057;-72
2022/10/18 07:28:13;;;;;;;18.20;16.00;;;;;;;13.91;100.00;102606.75;5213053;28;20507;-72
2022/10/18 07:30:44;;;;;;;22.13;16.37;;;;;;;13.74;100.00;102595.19;5226720;28;20028;-72
2022/10/18 07:33:16;;;;;;;22.77;17.90;;;;;;;14.00;100.00;102610.72;5252682;28;20017;-72
2022/10/18 07:35:47;;;;;;;22.77;19.00;;;;;;;13.91;100.00;102607.56;5252652;28;20146;-72
2022/10/18 07:38:18;;;;;;;22.57;17.90;;;;;;;14.08;100.00;102613.88;5216725;28;20026;-73
2022/10/18 07:40:58;;;;;;;30.60;19.57;;;;;;;14.11;100.00;102620.75;5211025;28;20057;-73
2022/10/18 07:43:29;;;;;;;27.97;20.83;;;;;;;14.13;100.00;102621.53;5212682;28;20041;-72
2022/10/18 07:46:03;;;;;;;30.43;21.00;;;;;;;14.01;100.00;102622.97;5215116;28;20030;-72
2022/10/18 07:48:34;;;;;;;29.38;21.17;;;;;;;14.07;100.00;102629.75;5213081;28;20426;-72
2022/10/18 07:51:06;;;;;;;28.30;20.50;;;;;;;14.19;100.00;102642.31;5212158;28;20337;-72
2022/10/18 07:53:37;;;;;;;27.10;19.37;;;;;;;14.18;100.00;102645.91;5210333;28;20026;-72
2022/10/18 07:56:15;;;;;;;29.80;19.73;;;;;;;14.24;100.00;102644.75;5211700;28;20132;-72
2022/10/18 07:58:50;;;;;;;28.70;19.40;;;;;;;14.25;100.00;102663.13;5212303;28;20022;-72
2022/10/18 08:01:22;;;;;;;23.30;19.53;;;;;;;14.32;100.00;102660.19;5211887;28;20477;-72
2022/10/18 08:03:54;;;;;;;29.47;18.77;;;;;;;14.52;100.00;102651.38;5211761;28;20026;-72
2022/10/18 08:06:25;;;;;;;22.07;16.43;;;;;;;14.46;100.00;102665.69;5212451;28;20032;-72
2022/10/18 08:08:56;;;;;;;28.07;17.83;;;;;;;14.53;100.00;102660.97;5210888;28;20115;-72
2022/10/18 08:11:27;;;;;;;27.53;18.47;;;;;;;14.63;100.00;102670.16;5212320;28;20030;-72
2022/10/18 08:13:59;;;;;;;25.83;18.57;;;;;;;14.60;100.00;102672.09;5210232;28;20030;-72
2022/10/18 08:16:30;;;;;;;29.70;17.63;;;;;;;14.72;100.00;102684.69;5214856;28;20049;-72
2022/10/18 08:19:01;;;;;;;22.77;16.17;;;;;;;14.78;100.00;102670.34;5216091;28;20030;-72
2022/10/18 08:21:33;;;;;;;25.47;18.30;;;;;;;14.91;100.00;102672.41;5216019;28;20025;-71
2022/10/18 08:24:04;;;;;;;24.70;17.80;;;;;;;14.95;100.00;102680.09;5213750;28;20033;-71
2022/10/18 08:26:35;;;;;;;25.80;17.53;;;;;;;15.04;100.00;102675.28;5215757;28;20650;-73
2022/10/18 08:29:07;;;;;;;23.63;16.20;;;;;;;15.12;100.00;102683.69;5216037;28;20807;-71
2022/10/18 08:31:38;;;;;;;25.03;17.00;;;;;;;15.02;100.00;102687.72;5216189;28;20026;-72
2022/10/18 08:34:09;;;;;;;24.00;16.77;;;;;;;15.27;100.00;102699.69;5214815;28;20400;-71
2022/10/18 08:36:41;;;;;;;24.10;16.17;;;;;;;15.26;100.00;102705.88;5215713;28;20026;-71
2022/10/18 08:39:12;;;;;;;23.87;17.17;;;;;;;15.34;100.00;102701.91;5214502;28;20028;-71
2022/10/18 08:42:10;;;;;;;27.23;16.43;;;;;;;15.57;100.00;102706.97;5215602;28;20025;-73
2022/10/18 08:44:47;;;;;;;23.07;15.03;;;;;;;15.48;100.00;102700.38;5218431;28;20026;-72
2022/10/18 08:47:40;;;;;;;24.60;14.53;;;;;;;15.83;100.00;102697.69;5215742;28;20030;-72
2022/10/18 08:50:18;;;;;;;23.70;14.17;;;;;;;16.19;100.00;102701.13;5215091;28;20483;-73
2022/10/18 08:53:02;;;;;;;24.47;13.70;;;;;;;17.35;100.00;102704.44;5253236;28;20033;-71
2022/10/18 08:55:51;;;;;;;21.50;12.10;;;;;;;18.24;100.00;102707.88;5256621;28;20104;-70
2022/10/18 08:58:25;;;;;;;16.17;10.47;;;;;;;19.32;100.00;102703.63;5258145;28;20522;-71
2022/10/18 09:00:59;;;;;;;;;;;;;;;21.24;100.00;102712.31;5257987;28;20067;-73
2022/10/18 09:04:14;;;;;;;21.50;10.40;;;;;;;21.31;100.00;102724.19;5257544;28;20299;-72
2022/10/18 09:07:04;;;;;;;13.60;9.07;;;;;;;21.36;100.00;102718.53;5256817;28;20029;-74
2022/10/18 09:09:54;;;;;;;14.65;9.45;;;;;;;22.54;100.00;102708.41;5256919;28;20025;-72
2022/10/18 09:12:48;;;;;;;16.38;9.07;;;;;;;23.29;100.00;102720.13;5257708;28;20035;-72
2022/10/18 09:15:19;;;;;;;12.90;8.13;;;;;;;22.31;93.73;102720.97;5257669;28;20029;-72
2022/10/18 09:18:20;;;;;;;16.27;8.23;;;;;;;23.70;100.00;102722.94;5257307;28;20028;-72
2022/10/18 09:20:55;;;;;;;17.17;9.98;;;;;;;23.19;94.08;102709.38;5257059;28;20018;-72
2022/10/18 09:23:38;;;;;;;15.77;9.20;;;;;;;24.15;100.00;102719.00;5256856;28;20065;-73
2022/10/18 09:26:15;;;;;;;15.05;8.20;;;;;;;24.48;67.40;102720.63;5256438;28;20040;-72
2022/10/18 09:29:05;;;;;;;11.30;7.25;;;;;;;25.91;67.96;102717.31;5256887;28;20021;-73
2022/10/18 09:32:03;;;;;;;16.85;7.53;;;;;;;26.61;64.94;102716.88;5257161;28;20021;-73
2022/10/18 09:34:52;;;;;;;14.38;7.60;;;;;;;25.78;58.89;102711.44;5257506;28;20020;-73
2022/10/18 09:37:27;;;;;;;12.98;6.22;;;;;;;26.44;57.25;102706.81;5256902;28;20032;-72
2022/10/18 09:40:05;;;;;;;15.52;7.72;;;;;;;27.12;55.15;102724.38;5256220;28;20079;-73
2022/10/18 09:42:41;;;;;;;13.25;6.10;;;;;;;26.88;54.97;102723.16;5256633;28;20036;-72
2022/10/18 09:45:24;;;;;;;12.85;6.13;;;;;;;27.32;57.54;102722.31;5256712;28;20033;-72
2022/10/18 09:48:07;;;;;;;17.27;7.03;;;;;;;27.00;55.60;102719.19;5255038;28;20479;-73
2022/10/18 09:50:41;;;;;;;13.65;5.70;;;;;;;26.06;53.44;102731.06;5256856;28;20471;-73
2022/10/18 09:53:22;;;;;;;13.80;6.95;;;;;;;25.67;58.38;102736.63;5255004;28;20452;-72
2022/10/18 09:56:15;;;;;;;15.20;6.72;;;;;;;25.40;59.07;102735.56;5256635;28;20025;-72
2022/10/18 09:58:50;;;;;;;14.70;7.05;;;;;;;24.00;60.72;102733.75;5256542;28;20527;-71
2022/10/18 10:01:24;;;;;;;16.08;6.68;;;;;;;23.52;62.34;102720.00;5256441;28;20032;-72
2022/10/18 10:03:56;;;;;;;14.55;7.32;;;;;;;22.62;62.70;102723.81;5256111;28;20029;-72
2022/10/18 10:06:30;;;;;;;14.05;8.05;;;;;;;22.32;66.91;102712.88;5256785;28;20025;-73
2022/10/18 10:09:14;;;;;;;14.93;7.47;;;;;;;21.93;66.77;102721.25;5254814;28;20017;-75
2022/10/18 10:11:50;;;;;;;;;;;;;;;22.96;66.95;102725.53;5255224;28;20079;-73
2022/10/18 10:14:25;;;;;;;15.68;6.82;;;;;;;21.41;68.85;102719.00;5254991;28;19912;-72
2022/10/18 10:17:01;;;;;;;17.02;7.22;;;;;;;21.07;68.45;102706.44;5256015;28;20100;-73
2022/10/18 10:19:36;;;;;;;12.20;7.30;;;;;;;20.98;70.69;102710.66;5255897;28;20543;-70
2022/10/18 10:22:11;;;;;;;19.38;8.32;;;;;;;20.78;71.34;102699.66;5256096;28;20021;-72
2022/10/18 10:24:49;;;;;;;;;;;;;;;21.60;70.78;102717.56;5255480;28;20111;-73
2022/10/18 10:27:33;;;;;;;17.45;6.93;;;;;;;20.40;72.97;102724.63;5256078;28;19917;-71
2022/10/18 10:30:22;;;;;;;21.83;8.82;;;;;;;20.60;74.15;102714.31;5254168;28;20427;-71
2022/10/18 10:32:55;;;;;;;13.32;6.53;;;;;;;20.01;72.68;102719.34;5255854;28;20032;-72
2022/10/18 10:35:36;;;;;;;21.13;8.15;;;;;;;20.02;73.06;102721.06;5255936;28;20368;-71
2022/10/18 10:38:22;;;;;;;14.57;7.88;;;;;;;20.22;74.67;102730.31;5254436;28;20025;-71
2022/10/18 10:40:54;;;;;;;19.05;7.50;;;;;;;19.79;73.66;102731.50;5255820;28;20468;-71
2022/10/18 10:43:32;;;;;;;17.63;6.40;;;;;;;20.00;73.84;102742.41;5255845;28;20025;-71
2022/10/18 10:46:10;;;;;;;20.27;7.45;;;;;;;19.94;73.97;102745.53;5254990;28;20063;-71
2022/10/18 10:48:51;;;;;;;15.07;5.55;;;;;;;19.62;73.87;102738.00;5255770;28;20459;-71
2022/10/18 10:51:37;;;;;;;14.75;6.15;;;;;;;19.67;74.99;102744.69;5255681;28;20409;-71
2022/10/18 10:54:17;;;;;;;14.68;5.78;;;;;;;19.90;74.17;102746.69;5254457;28;20039;-73
2022/10/18 10:57:03;;;;;;;11.07;6.30;;;;;;;19.69;71.13;102745.44;5254141;28;20090;-73
2022/10/18 10:59:45;;;;;;;15.98;5.93;;;;;;;19.80;74.11;102750.00;5254733;28;20021;-72
2022/10/18 11:02:31;;;;;;;13.88;5.50;;;;;;;19.79;73.72;102745.63;5252495;28;20041;-72
2022/10/18 11:05:42;;;;;;;20.15;5.75;;;;;;;19.95;73.71;102749.88;5253876;28;20022;-72
2022/10/18 11:08:21;;;;;;;11.27;5.05;;;;;;;19.55;71.88;102743.72;5232133;28;20600;-72
2022/10/18 11:11:00;;;;;;;17.38;4.82;;;;;;;19.13;71.74;102753.63;5253787;28;20021;-72
2022/10/18 11:13:41;;;;;;;13.73;4.57;;;;;;;19.77;70.16;102754.69;5254082;28;20044;-72
2022/10/18 11:16:25;;;;;;;12.93;4.18;;;;;;;19.67;72.11;102755.31;5253827;28;20483;-73
2022/10/18 11:18:56;;;;;;;16.10;4.60;;;;;;;19.53;69.47;102755.41;5254215;28;20024;-71
2022/10/18 11:21:31;;;;;;;11.95;4.03;;;;;;;19.68;70.65;102759.69;5254030;28;20324;-72
2022/10/18 11:24:04;;;;;;;16.15;4.80;;;;;;;19.62;71.53;102757.44;5252275;28;20120;-71
2022/10/18 11:27:19;;;;;;;12.07;4.78;;;;;;;19.53;70.12;102761.56;5254295;28;20096;-71
2022/10/18 11:30:30;;;;;;;11.65;4.25;;;;;;;19.75;70.68;102743.31;5209823;28;20104;-71
2022/10/18 11:33:21;;;;;;;13.32;4.32;;;;;;;19.75;69.82;102749.47;5254100;28;20024;-72
2022/10/18 11:36:03;;;;;;;8.90;3.70;;;;;;;19.42;71.06;102745.50;5254412;28;20120;-73
2022/10/18 11:38:46;;;;;;;15.40;3.92;;;;;;;19.62;73.18;102748.63;5254833;28;20025;-72
2022/10/18 11:41:54;;;;;;;12.10;3.75;;;;;;;19.74;67.76;102745.09;5256468;28;20025;-72
2022/10/18 11:44:43;;;;;;;12.07;3.10;;;;;;;19.49;66.85;102741.50;5218756;28;20534;-73
2022/10/18 11:47:49;;;;;;;10.07;2.88;;;;;;;19.80;69.17;102741.16;5223450;28;20387;-73
2022/10/18 11:50:39;;;;;;;12.15;3.65;;;;;;;19.78;68.14;102741.28;5226178;28;20033;-73